sensor_id;sensor_type;location;lat;lon;timestamp;pressure;altitude;pressure_sealevel;temperature;humidity
46199;BME280;31928;52.104;10.030;2023-01-29T00:01:22;101832.75;;;2.22;55.19
46199;BME280;31928;52.104;10.030;2023-01-29T00:03:51;101835.00;;;2.27;58.50
46199;BME280;31928;52.104;10.030;2023-01-29T00:06:18;101824.88;;;2.32;60.75
46199;BME280;31928;52.104;10.030;2023-01-29T00:08:45;101816.19;;;2.40;58.67
46199;BME280;31928;52.104;10.030;2023-01-29T00:11:12;101818.09;;;2.49;58.77
46199;BME280;31928;52.104;10.030;2023-01-29T00:13:39;101815.50;;;2.59;56.82
46199;BME280;31928;52.104;10.030;2023-01-29T00:16:06;101813.19;;;2.65;55.87
46199;BME280;31928;52.104;10.030;2023-01-29T00:18:32;101817.41;;;2.88;55.42
46199;BME280;31928;52.104;10.030;2023-01-29T00:20:59;101809.78;;;2.74;55.21
46199;BME280;31928;52.104;10.030;2023-01-29T00:23:25;101810.78;;;2.73;55.01
46199;BME280;31928;52.104;10.030;2023-01-29T00:25:52;101801.28;;;2.91;54.67
46199;BME280;31928;52.104;10.030;2023-01-29T00:28:19;101801.16;;;2.72;54.92
46199;BME280;31928;52.104;10.030;2023-01-29T00:30:45;101804.75;;;2.71;54.96
46199;BME280;31928;52.104;10.030;2023-01-29T00:33:12;101806.69;;;2.69;54.73
46199;BME280;31928;52.104;10.030;2023-01-29T00:35:39;101802.38;;;2.68;55.07
46199;BME280;31928;52.104;10.030;2023-01-29T00:38:06;101793.72;;;2.66;54.88
46199;BME280;31928;52.104;10.030;2023-01-29T00:40:35;101796.22;;;2.88;54.73
46199;BME280;31928;52.104;10.030;2023-01-29T00:43:22;101803.94;;;2.71;55.01
46199;BME280;31928;52.104;10.030;2023-01-29T00:46:08;101805.25;;;2.65;54.94
46199;BME280;31928;52.104;10.030;2023-01-29T00:48:35;101806.13;;;2.66;54.91
46199;BME280;31928;52.104;10.030;2023-01-29T00:51:02;101808.91;;;2.64;55.24
46199;BME280;31928;52.104;10.030;2023-01-29T00:53:29;101809.00;;;2.63;55.21
46199;BME280;31928;52.104;10.030;2023-01-29T00:55:55;101810.56;;;2.65;55.17
46199;BME280;31928;52.104;10.030;2023-01-29T00:58:22;101802.59;;;2.65;55.04
46199;BME280;31928;52.104;10.030;2023-01-29T01:01:00;101800.69;;;2.67;55.19
46199;BME280;31928;52.104;10.030;2023-01-29T01:03:28;101805.03;;;2.68;54.93
46199;BME280;31928;52.104;10.030;2023-01-29T01:06:04;101804.75;;;2.71;54.99
46199;BME280;31928;52.104;10.030;2023-01-29T01:08:31;101798.88;;;2.68;55.26
46199;BME280;31928;52.104;10.030;2023-01-29T01:11:18;101801.38;;;2.69;55.14
46199;BME280;31928;52.104;10.030;2023-01-29T01:13:44;101798.72;;;2.69;55.17
46199;BME280;31928;52.104;10.030;2023-01-29T01:16:16;101799.19;;;2.74;55.28
46199;BME280;31928;52.104;10.030;2023-01-29T01:18:44;101810.06;;;2.71;55.10
46199;BME280;31928;52.104;10.030;2023-01-29T01:21:10;101803.66;;;2.74;55.29
46199;BME280;31928;52.104;10.030;2023-01-29T01:23:37;101811.47;;;2.75;55.08
46199;BME280;31928;52.104;10.030;2023-01-29T01:26:07;101808.47;;;2.80;55.16
46199;BME280;31928;52.104;10.030;2023-01-29T01:28:34;101802.31;;;2.79;55.06
46199;BME280;31928;52.104;10.030;2023-01-29T01:31:09;101796.50;;;2.85;54.85
46199;BME280;31928;52.104;10.030;2023-01-29T01:33:36;101792.44;;;2.81;54.76
46199;BME280;31928;52.104;10.030;2023-01-29T01:36:04;101798.44;;;2.83;54.94
46199;BME280;31928;52.104;10.030;2023-01-29T01:38:37;101782.31;;;2.86;54.92
46199;BME280;31928;52.104;10.030;2023-01-29T01:41:15;101790.25;;;2.86;55.00
46199;BME280;31928;52.104;10.030;2023-01-29T01:46:54;101781.19;;;2.89;54.99
46199;BME280;31928;52.104;10.030;2023-01-29T01:49:21;101781.06;;;2.90;54.84
46199;BME280;31928;52.104;10.030;2023-01-29T01:51:51;101769.50;;;2.91;54.96
46199;BME280;31928;52.104;10.030;2023-01-29T01:54:23;101767.41;;;2.95;54.69
46199;BME280;31928;52.104;10.030;2023-01-29T01:56:54;101765.88;;;2.92;54.74
46199;BME280;31928;52.104;10.030;2023-01-29T01:59:32;101766.47;;;2.96;54.57
46199;BME280;31928;52.104;10.030;2023-01-29T02:01:59;101764.09;;;2.93;54.53
46199;BME280;31928;52.104;10.030;2023-01-29T02:04:45;101767.56;;;2.93;54.65
46199;BME280;31928;52.104;10.030;2023-01-29T02:07:32;101762.13;;;2.95;54.58
46199;BME280;31928;52.104;10.030;2023-01-29T02:10:18;101764.22;;;2.91;54.46
46199;BME280;31928;52.104;10.030;2023-01-29T02:12:46;101757.09;;;2.92;54.65
46199;BME280;31928;52.104;10.030;2023-01-29T02:15:13;101754.44;;;2.92;54.84
46199;BME280;31928;52.104;10.030;2023-01-29T02:17:39;101770.34;;;2.92;54.68
46199;BME280;31928;52.104;10.030;2023-01-29T02:28:24;101773.44;;;2.97;54.85
46199;BME280;31928;52.104;10.030;2023-01-29T02:33:58;101783.19;;;2.96;54.61
46199;BME280;31928;52.104;10.030;2023-01-29T02:36:43;101783.75;;;2.99;54.46
46199;BME280;31928;52.104;10.030;2023-01-29T02:39:32;101770.38;;;3.01;54.74
46199;BME280;31928;52.104;10.030;2023-01-29T02:42:08;101771.16;;;2.92;54.61
46199;BME280;31928;52.104;10.030;2023-01-29T02:44:42;101777.88;;;2.96;54.75
46199;BME280;31928;52.104;10.030;2023-01-29T02:47:22;101772.47;;;2.97;54.50
46199;BME280;31928;52.104;10.030;2023-01-29T02:52:35;101784.03;;;2.97;54.62
46199;BME280;31928;52.104;10.030;2023-01-29T02:55:17;101794.50;;;2.98;54.82
46199;BME280;31928;52.104;10.030;2023-01-29T02:57:48;101791.53;;;2.92;54.51
46199;BME280;31928;52.104;10.030;2023-01-29T03:00:21;101779.69;;;2.96;54.74
46199;BME280;31928;52.104;10.030;2023-01-29T03:03:00;101797.41;;;2.95;54.58
46199;BME280;31928;52.104;10.030;2023-01-29T03:05:55;101790.63;;;3.02;54.62
46199;BME280;31928;52.104;10.030;2023-01-29T03:08:31;101785.00;;;2.96;54.77
46199;BME280;31928;52.104;10.030;2023-01-29T03:11:12;101788.22;;;2.99;55.00
46199;BME280;31928;52.104;10.030;2023-01-29T03:13:47;101796.19;;;2.99;55.02
46199;BME280;31928;52.104;10.030;2023-01-29T03:16:22;101783.75;;;2.99;55.11
46199;BME280;31928;52.104;10.030;2023-01-29T03:18:55;101780.97;;;3.01;55.29
46199;BME280;31928;52.104;10.030;2023-01-29T03:21:28;101787.13;;;3.01;55.20
46199;BME280;31928;52.104;10.030;2023-01-29T03:27:25;101768.47;;;3.03;54.93
46199;BME280;31928;52.104;10.030;2023-01-29T03:30:13;101763.16;;;3.03;55.07
46199;BME280;31928;52.104;10.030;2023-01-29T03:33:03;101769.00;;;3.06;54.96
46199;BME280;31928;52.104;10.030;2023-01-29T03:35:36;101759.56;;;3.04;55.00
46199;BME280;31928;52.104;10.030;2023-01-29T03:38:07;101763.16;;;3.03;54.89
46199;BME280;31928;52.104;10.030;2023-01-29T03:40:46;101758.19;;;3.09;55.07
46199;BME280;31928;52.104;10.030;2023-01-29T03:45:51;101762.19;;;3.04;55.00
46199;BME280;31928;52.104;10.030;2023-01-29T03:54:44;101757.25;;;3.20;54.65
46199;BME280;31928;52.104;10.030;2023-01-29T03:57:25;101749.00;;;3.13;54.92
46199;BME280;31928;52.104;10.030;2023-01-29T04:00:08;101747.88;;;3.16;55.00
46199;BME280;31928;52.104;10.030;2023-01-29T04:02:53;101754.88;;;3.17;54.78
46199;BME280;31928;52.104;10.030;2023-01-29T04:05:23;101745.25;;;3.16;54.82
46199;BME280;31928;52.104;10.030;2023-01-29T04:07:54;101745.09;;;3.17;54.66
46199;BME280;31928;52.104;10.030;2023-01-29T04:10:25;101738.97;;;3.17;54.60
46199;BME280;31928;52.104;10.030;2023-01-29T04:12:57;101737.97;;;3.18;55.08
46199;BME280;31928;52.104;10.030;2023-01-29T04:15:28;101733.69;;;3.17;54.85
46199;BME280;31928;52.104;10.030;2023-01-29T04:17:56;101720.69;;;3.14;54.78
46199;BME280;31928;52.104;10.030;2023-01-29T04:20:23;101725.00;;;3.15;54.67
46199;BME280;31928;52.104;10.030;2023-01-29T04:22:50;101723.09;;;3.17;54.82
46199;BME280;31928;52.104;10.030;2023-01-29T04:25:23;101715.81;;;3.19;54.59
46199;BME280;31928;52.104;10.030;2023-01-29T17:43:08;101077.66;;;6.08;54.76
46199;BME280;31928;52.104;10.030;2023-01-29T17:45:38;101075.28;;;6.29;53.94
46199;BME280;31928;52.104;10.030;2023-01-29T17:48:14;101069.47;;;6.42;53.85
46199;BME280;31928;52.104;10.030;2023-01-29T17:50:44;101079.28;;;6.41;53.57
46199;BME280;31928;52.104;10.030;2023-01-29T17:53:14;101079.94;;;6.43;53.29
46199;BME280;31928;52.104;10.030;2023-01-29T17:55:41;101066.63;;;6.43;53.30
46199;BME280;31928;52.104;10.030;2023-01-29T17:58:19;101073.28;;;6.47;53.10
46199;BME280;31928;52.104;10.030;2023-01-29T18:00:46;101078.63;;;6.39;53.13
46199;BME280;31928;52.104;10.030;2023-01-29T18:03:14;101087.78;;;6.37;53.14
46199;BME280;31928;52.104;10.030;2023-01-29T18:05:41;101080.75;;;6.59;52.70
46199;BME280;31928;52.104;10.030;2023-01-29T18:08:29;101087.75;;;6.45;52.75
46199;BME280;31928;52.104;10.030;2023-01-29T18:10:58;101084.97;;;6.30;53.21
46199;BME280;31928;52.104;10.030;2023-01-29T18:13:25;101077.31;;;6.27;53.60
46199;BME280;31928;52.104;10.030;2023-01-29T18:15:52;101082.31;;;6.14;53.59
46199;BME280;31928;52.104;10.030;2023-01-29T18:18:21;101071.50;;;6.24;53.83
46199;BME280;31928;52.104;10.030;2023-01-29T18:20:49;101064.84;;;6.20;53.95
46199;BME280;31928;52.104;10.030;2023-01-29T18:23:16;101066.00;;;6.17;54.10
46199;BME280;31928;52.104;10.030;2023-01-29T18:25:43;101060.69;;;6.17;54.06
46199;BME280;31928;52.104;10.030;2023-01-29T18:28:19;101067.31;;;6.21;53.94
46199;BME280;31928;52.104;10.030;2023-01-29T18:30:46;101066.34;;;6.14;54.20
46199;BME280;31928;52.104;10.030;2023-01-29T18:33:14;101057.69;;;6.12;54.11
46199;BME280;31928;52.104;10.030;2023-01-29T18:35:46;101048.03;;;6.11;54.15
46199;BME280;31928;52.104;10.030;2023-01-29T18:38:16;101025.25;;;6.09;54.26
46199;BME280;31928;52.104;10.030;2023-01-29T18:40:43;101026.41;;;6.06;54.40
46199;BME280;31928;52.104;10.030;2023-01-29T18:43:09;101028.44;;;6.04;54.51
46199;BME280;31928;52.104;10.030;2023-01-29T18:45:36;101025.59;;;6.06;54.61
46199;BME280;31928;52.104;10.030;2023-01-29T18:48:03;101019.44;;;6.05;54.87
46199;BME280;31928;52.104;10.030;2023-01-29T18:50:30;101013.13;;;5.98;54.87
46199;BME280;31928;52.104;10.030;2023-01-29T18:52:57;100993.59;;;6.22;54.35
46199;BME280;31928;52.104;10.030;2023-01-29T18:55:24;100985.34;;;6.01;55.00
46199;BME280;31928;52.104;10.030;2023-01-29T18:57:53;100984.69;;;5.91;55.78
46199;BME280;31928;52.104;10.030;2023-01-29T19:00:39;100975.50;;;6.17;54.61
46199;BME280;31928;52.104;10.030;2023-01-29T19:03:06;100976.22;;;5.96;55.27
46199;BME280;31928;52.104;10.030;2023-01-29T19:05:32;100978.06;;;5.95;55.34
46199;BME280;31928;52.104;10.030;2023-01-29T19:07:59;100971.91;;;5.87;55.81
46199;BME280;31928;52.104;10.030;2023-01-29T19:10:27;100958.25;;;5.82;56.23
46199;BME280;31928;52.104;10.030;2023-01-29T19:12:53;100949.63;;;5.80;56.01
46199;BME280;31928;52.104;10.030;2023-01-29T19:15:20;100956.94;;;5.78;56.12
46199;BME280;31928;52.104;10.030;2023-01-29T19:17:51;100954.63;;;5.83;55.79
46199;BME280;31928;52.104;10.030;2023-01-29T19:20:17;100962.94;;;5.80;55.69
46199;BME280;31928;52.104;10.030;2023-01-29T19:22:44;100972.88;;;5.94;55.40
46199;BME280;31928;52.104;10.030;2023-01-29T19:25:11;100966.09;;;5.75;55.87
46199;BME280;31928;52.104;10.030;2023-01-29T19:27:38;100975.88;;;5.75;56.09
46199;BME280;31928;52.104;10.030;2023-01-29T19:30:05;100962.56;;;5.75;56.08
46199;BME280;31928;52.104;10.030;2023-01-29T19:32:32;100966.88;;;5.68;56.07
46199;BME280;31928;52.104;10.030;2023-01-29T19:34:59;100961.91;;;5.73;56.11
46199;BME280;31928;52.104;10.030;2023-01-29T19:37:26;100967.91;;;5.91;55.75
46199;BME280;31928;52.104;10.030;2023-01-29T19:39:53;100959.91;;;5.75;55.98
46199;BME280;31928;52.104;10.030;2023-01-29T19:42:19;100957.91;;;5.69;56.79
46199;BME280;31928;52.104;10.030;2023-01-29T19:44:46;100946.47;;;5.68;56.91
46199;BME280;31928;52.104;10.030;2023-01-29T19:47:13;100936.97;;;5.66;56.92
46199;BME280;31928;52.104;10.030;2023-01-29T19:49:39;100921.53;;;5.85;56.40
46199;BME280;31928;52.104;10.030;2023-01-29T19:52:06;100928.31;;;5.64;57.13
46199;BME280;31928;52.104;10.030;2023-01-29T19:54:40;100909.06;;;5.62;56.89
46199;BME280;31928;52.104;10.030;2023-01-29T19:57:11;100909.38;;;5.59;57.23
46199;BME280;31928;52.104;10.030;2023-01-29T19:59:38;100907.25;;;5.54;57.31
46199;BME280;31928;52.104;10.030;2023-01-29T20:02:05;100877.28;;;5.60;56.75
46199;BME280;31928;52.104;10.030;2023-01-29T20:04:31;100889.13;;;5.58;56.91
46199;BME280;31928;52.104;10.030;2023-01-29T20:06:58;100863.84;;;5.54;56.77
46199;BME280;31928;52.104;10.030;2023-01-29T20:09:24;100860.19;;;5.55;56.62
46199;BME280;31928;52.104;10.030;2023-01-29T20:11:51;100858.53;;;5.54;56.82
46199;BME280;31928;52.104;10.030;2023-01-29T20:14:18;100852.88;;;5.57;56.77
46199;BME280;31928;52.104;10.030;2023-01-29T20:16:44;100870.19;;;5.45;56.91
46199;BME280;31928;52.104;10.030;2023-01-29T20:19:11;100840.94;;;5.53;57.17
46199;BME280;31928;52.104;10.030;2023-01-29T20:21:40;100852.53;;;5.60;56.79
46199;BME280;31928;52.104;10.030;2023-01-29T20:24:11;100829.78;;;5.57;56.92
46199;BME280;31928;52.104;10.030;2023-01-29T20:26:38;100827.97;;;5.58;56.78
46199;BME280;31928;52.104;10.030;2023-01-29T20:29:05;100809.31;;;5.66;56.29
46199;BME280;31928;52.104;10.030;2023-01-29T20:31:31;100807.31;;;5.84;55.87
46199;BME280;31928;52.104;10.030;2023-01-29T20:33:58;100785.72;;;5.71;55.92
46199;BME280;31928;52.104;10.030;2023-01-29T20:36:25;100788.22;;;5.64;56.39
46199;BME280;31928;52.104;10.030;2023-01-29T20:38:52;100806.00;;;5.64;56.22
46199;BME280;31928;52.104;10.030;2023-01-29T20:41:18;100800.34;;;5.67;56.08
46199;BME280;31928;52.104;10.030;2023-01-29T20:43:45;100801.66;;;5.71;56.25
46199;BME280;31928;52.104;10.030;2023-01-29T20:46:13;100800.66;;;5.64;56.39
46199;BME280;31928;52.104;10.030;2023-01-29T20:48:39;100797.84;;;5.65;56.60
46199;BME280;31928;52.104;10.030;2023-01-29T20:51:09;100799.16;;;5.69;56.62
46199;BME280;31928;52.104;10.030;2023-01-29T20:53:38;100795.84;;;5.67;56.58
46199;BME280;31928;52.104;10.030;2023-01-29T20:56:07;100796.34;;;5.71;56.21
46199;BME280;31928;52.104;10.030;2023-01-29T20:58:34;100797.16;;;5.71;56.27
46199;BME280;31928;52.104;10.030;2023-01-29T21:01:06;100787.03;;;5.75;56.22
46199;BME280;31928;52.104;10.030;2023-01-29T21:03:33;100776.69;;;5.72;56.43
46199;BME280;31928;52.104;10.030;2023-01-29T21:06:00;100756.63;;;5.77;55.80
46199;BME280;31928;52.104;10.030;2023-01-29T21:08:27;100754.09;;;5.76;56.08
46199;BME280;31928;52.104;10.030;2023-01-29T21:10:54;100753.13;;;5.77;55.85
46199;BME280;31928;52.104;10.030;2023-01-29T21:13:20;100742.97;;;5.80;56.07
46199;BME280;31928;52.104;10.030;2023-01-29T21:15:50;100744.63;;;5.81;55.85
46199;BME280;31928;52.104;10.030;2023-01-29T21:18:17;100737.81;;;5.79;55.82
46199;BME280;31928;52.104;10.030;2023-01-29T21:20:43;100738.47;;;5.81;55.95
46199;BME280;31928;52.104;10.030;2023-01-29T21:23:10;100733.16;;;5.81;55.98
46199;BME280;31928;52.104;10.030;2023-01-29T21:25:37;100722.19;;;5.84;55.65
46199;BME280;31928;52.104;10.030;2023-01-29T21:28:04;100724.22;;;6.04;55.20
46199;BME280;31928;52.104;10.030;2023-01-29T21:30:31;100719.81;;;5.89;55.79
46199;BME280;31928;52.104;10.030;2023-01-29T21:32:58;100716.50;;;5.87;55.88
46199;BME280;31928;52.104;10.030;2023-01-29T21:35:24;100723.03;;;6.06;54.86
46199;BME280;31928;52.104;10.030;2023-01-29T21:37:51;100729.44;;;5.90;55.64
46199;BME280;31928;52.104;10.030;2023-01-29T21:40:18;100733.13;;;5.89;55.56
46199;BME280;31928;52.104;10.030;2023-01-29T21:42:46;100730.63;;;5.87;55.73
46199;BME280;31928;52.104;10.030;2023-01-29T21:45:32;100729.81;;;5.87;55.80
46199;BME280;31928;52.104;10.030;2023-01-29T21:48:00;100722.63;;;5.87;55.90
46199;BME280;31928;52.104;10.030;2023-01-29T21:50:27;100710.00;;;5.89;55.83
46199;BME280;31928;52.104;10.030;2023-01-29T21:52:54;100708.66;;;5.93;55.57
46199;BME280;31928;52.104;10.030;2023-01-29T21:55:20;100697.81;;;5.95;55.86
46199;BME280;31928;52.104;10.030;2023-01-29T21:57:47;100708.81;;;5.92;55.84
46199;BME280;31928;52.104;10.030;2023-01-29T22:00:14;100699.19;;;5.91;56.08
46199;BME280;31928;52.104;10.030;2023-01-29T22:02:41;100687.50;;;5.99;55.95
46199;BME280;31928;52.104;10.030;2023-01-29T22:05:08;100695.28;;;6.01;55.87
46199;BME280;31928;52.104;10.030;2023-01-29T22:07:44;100698.78;;;6.01;55.68
46199;BME280;31928;52.104;10.030;2023-01-29T22:10:11;100683.00;;;6.22;55.61
46199;BME280;31928;52.104;10.030;2023-01-29T22:12:38;100688.59;;;6.05;55.92
46199;BME280;31928;52.104;10.030;2023-01-29T22:15:06;100682.47;;;6.04;56.12
46199;BME280;31928;52.104;10.030;2023-01-29T22:17:33;100687.50;;;5.99;56.27
46199;BME280;31928;52.104;10.030;2023-01-29T22:20:00;100689.44;;;6.05;55.86
46199;BME280;31928;52.104;10.030;2023-01-29T22:22:27;100699.63;;;6.24;55.71
46199;BME280;31928;52.104;10.030;2023-01-29T22:24:54;100680.28;;;6.08;55.92
46199;BME280;31928;52.104;10.030;2023-01-29T22:27:21;100684.44;;;6.10;55.70
46199;BME280;31928;52.104;10.030;2023-01-29T22:29:48;100688.72;;;6.11;55.78
46199;BME280;31928;52.104;10.030;2023-01-29T22:32:14;100685.25;;;6.11;55.58
46199;BME280;31928;52.104;10.030;2023-01-29T22:34:41;100682.22;;;6.14;55.39
46199;BME280;31928;52.104;10.030;2023-01-29T22:37:08;100669.41;;;6.17;55.50
46199;BME280;31928;52.104;10.030;2023-01-29T22:39:34;100659.75;;;6.16;55.41
46199;BME280;31928;52.104;10.030;2023-01-29T22:42:01;100654.09;;;6.19;55.55
46199;BME280;31928;52.104;10.030;2023-01-29T22:44:28;100666.03;;;6.23;55.24
46199;BME280;31928;52.104;10.030;2023-01-29T22:46:54;100649.41;;;6.21;55.65
46199;BME280;31928;52.104;10.030;2023-01-29T22:49:21;100658.69;;;6.25;55.35
46199;BME280;31928;52.104;10.030;2023-01-29T22:51:48;100669.16;;;6.27;55.31
46199;BME280;31928;52.104;10.030;2023-01-29T22:54:39;100655.66;;;6.28;55.59
46199;BME280;31928;52.104;10.030;2023-01-29T22:57:11;100659.66;;;6.32;55.56
46199;BME280;31928;52.104;10.030;2023-01-29T22:59:38;100644.00;;;6.29;55.43
46199;BME280;31928;52.104;10.030;2023-01-29T23:02:06;100640.34;;;6.30;55.54
46199;BME280;31928;52.104;10.030;2023-01-29T23:04:33;100632.19;;;6.32;55.40
46199;BME280;31928;52.104;10.030;2023-01-29T23:07:00;100634.22;;;6.30;55.66
46199;BME280;31928;52.104;10.030;2023-01-29T23:09:27;100628.03;;;6.29;55.78
46199;BME280;31928;52.104;10.030;2023-01-29T23:11:53;100612.50;;;6.55;54.82
46199;BME280;31928;52.104;10.030;2023-01-29T23:14:20;100630.00;;;6.35;55.41
46199;BME280;31928;52.104;10.030;2023-01-29T23:16:47;100620.72;;;6.31;55.74
46199;BME280;31928;52.104;10.030;2023-01-29T23:19:13;100610.34;;;6.36;55.69
46199;BME280;31928;52.104;10.030;2023-01-29T23:21:40;100610.69;;;6.33;55.63
46199;BME280;31928;52.104;10.030;2023-01-29T23:24:07;100606.03;;;6.35;55.73
46199;BME280;31928;52.104;10.030;2023-01-29T23:26:34;100568.75;;;6.35;56.08
46199;BME280;31928;52.104;10.030;2023-01-29T23:29:19;100590.78;;;6.29;56.20
46199;BME280;31928;52.104;10.030;2023-01-29T23:31:46;100559.69;;;6.58;55.40
46199;BME280;31928;52.104;10.030;2023-01-29T23:34:13;100554.88;;;6.40;56.23
46199;BME280;31928;52.104;10.030;2023-01-29T23:36:40;100539.75;;;6.40;56.25
46199;BME280;31928;52.104;10.030;2023-01-29T23:39:07;100524.50;;;6.34;56.62
46199;BME280;31928;52.104;10.030;2023-01-29T23:44:01;100491.00;;;6.40;56.59
46199;BME280;31928;52.104;10.030;2023-01-29T23:46:27;100466.88;;;6.41;56.54
46199;BME280;31928;52.104;10.030;2023-01-29T23:48:54;100445.91;;;6.38;57.10
46199;BME280;31928;52.104;10.030;2023-01-29T23:51:20;100457.84;;;6.42;56.57
46199;BME280;31928;52.104;10.030;2023-01-29T23:53:47;100433.69;;;6.44;56.96
46199;BME280;31928;52.104;10.030;2023-01-29T23:56:13;100438.69;;;6.47;56.75
46199;BME280;31928;52.104;10.030;2023-01-29T23:58:40;100439.47;;;6.47;57.00
